Time;durP1;ratioP1;P1;durP2;ratioP2;P2;SDS_P1;SDS_P2;PMS_P1;PMS_P2;Temp;Humidity;BMP_temperature;BMP_pressure;BME280_temperature;BME280_humidity;BME280_pressure;Samples;Min_cycle;Max_cycle;Signal;HPM_P1;HPM_P2
2022/08/22 00:00:15;;;;;;;15.93;3.85;;;;;;;20.20;67.35;101418.69;5023684;28;20463;-72
2022/08/22 00:02:52;;;;;;;14.10;3.22;;;;;;;20.21;67.12;101414.91;5028847;28;20025;-73
2022/08/22 00:05:45;;;;;;;29.02;4.47;;;;;;;20.01;68.04;101403.00;5026967;28;20036;-71
2022/08/22 00:08:25;;;;;;;13.15;3.70;;;;;;;19.86;68.52;101416.06;5024698;28;20032;-71
2022/08/22 00:11:20;;;;;;;23.23;4.47;;;;;;;19.73;69.02;101406.72;5029095;28;20025;-71
2022/08/22 00:13:49;;;;;;;22.27;4.00;;;;;;;19.77;69.21;101413.53;5021041;28;20437;-71
2022/08/22 00:16:28;;;;;;;18.25;3.92;;;;;;;19.97;68.47;101404.50;5023905;28;20026;-71
2022/08/22 00:19:04;;;;;;;21.10;4.60;;;;;;;20.01;68.48;101406.59;5023085;28;20039;-71
2022/08/22 00:21:45;;;;;;;13.20;4.35;;;;;;;19.85;68.86;101419.88;5022479;28;20022;-71
2022/08/22 00:24:16;;;;;;;22.50;4.90;;;;;;;19.78;69.32;101423.44;5022889;28;20116;-71
2022/08/22 00:26:50;;;;;;;12.60;4.03;;;;;;;19.82;69.13;101421.13;5026473;28;20045;-72
2022/08/22 00:29:26;;;;;;;20.02;4.80;;;;;;;19.77;69.04;101424.50;5024571;28;20024;-72
2022/08/22 00:32:18;;;;;;;23.65;3.40;;;;;;;19.68;69.65;101431.22;5026372;28;20029;-72
2022/08/22 00:35:01;;;;;;;20.38;4.00;;;;;;;19.65;69.78;101433.53;4991319;28;20158;-73
2022/08/22 00:37:36;;;;;;;18.20;4.55;;;;;;;19.70;69.82;101431.88;5030442;28;20021;-72
2022/08/22 00:40:21;;;;;;;17.20;4.50;;;;;;;19.82;69.38;101431.28;5035230;28;20112;-73
2022/08/22 00:43:03;;;;;;;13.80;3.13;;;;;;;19.93;68.86;101428.78;5028752;28;20029;-73
2022/08/22 00:46:02;;;;;;;15.13;3.85;;;;;;;19.96;68.90;101435.78;5025988;28;20051;-72
2022/08/22 00:48:37;;;;;;;17.23;4.10;;;;;;;20.02;68.60;101437.72;5025566;28;20029;-72
2022/08/22 00:51:14;;;;;;;28.17;4.70;;;;;;;20.01;68.75;101436.00;5029267;28;20028;-72
2022/08/22 00:53:49;;;;;;;16.00;4.18;;;;;;;20.23;67.85;101429.31;5030608;28;20030;-71
2022/08/22 00:56:24;;;;;;;19.70;4.00;;;;;;;20.31;67.65;101426.34;5028393;28;20024;-71
2022/08/22 00:59:22;;;;;;;13.20;3.67;;;;;;;20.27;67.59;101427.81;5029906;28;20033;-73
2022/08/22 01:02:13;;;;;;;20.95;4.20;;;;;;;20.30;67.70;101423.81;5027866;28;20033;-72
2022/08/22 01:04:55;;;;;;;29.13;5.13;;;;;;;20.41;67.35;101423.19;5027239;28;20079;-72
2022/08/22 01:07:58;;;;;;;17.30;3.63;;;;;;;20.31;67.59;101431.84;5028669;28;20272;-72
2022/08/22 01:10:51;;;;;;;12.02;3.25;;;;;;;19.98;68.76;101425.44;5029597;28;20021;-73
2022/08/22 01:13:35;;;;;;;18.60;3.90;;;;;;;20.13;68.47;101428.84;5028396;28;20021;-72
2022/08/22 01:16:31;;;;;;;17.25;4.20;;;;;;;20.09;68.58;101422.09;5030115;28;20017;-72
2022/08/22 01:19:09;;;;;;;20.55;4.20;;;;;;;20.09;68.38;101422.09;5030426;28;20053;-72
2022/08/22 01:22:12;;;;;;;20.95;3.70;;;;;;;20.09;68.15;101416.59;5025432;28;20049;-73
2022/08/22 01:28:22;;;;;;;12.05;3.00;;;;;;;20.06;68.86;101411.47;5028477;28;20036;-73
2022/08/22 01:31:15;;;;;;;14.88;3.42;;;;;;;20.15;68.33;101410.25;5030536;28;20025;-72
2022/08/22 01:34:03;;;;;;;20.33;4.18;;;;;;;20.10;68.41;101407.28;5027129;28;20116;-71
2022/08/22 01:36:58;;;;;;;16.48;4.47;;;;;;;19.80;69.62;101417.75;5028368;28;20061;-71
2022/08/22 01:39:47;;;;;;;13.82;3.35;;;;;;;19.95;68.93;101415.69;5030567;28;20021;-73
2022/08/22 01:42:32;;;;;;;20.85;3.42;;;;;;;19.93;69.07;101416.94;5027875;28;20303;-71
2022/08/22 01:45:01;;;;;;;17.42;4.00;;;;;;;19.97;69.08;101412.75;5028726;28;20037;-71
2022/08/22 01:47:46;;;;;;;21.73;3.80;;;;;;;19.84;69.46;101410.78;5026815;28;20033;-72
2022/08/22 01:50:24;;;;;;;10.80;3.65;;;;;;;19.92;69.03;101420.75;5030314;28;20035;-72
2022/08/22 01:53:22;;;;;;;14.57;3.90;;;;;;;20.03;68.44;101420.16;5030230;28;20545;-71
2022/08/22 01:56:12;;;;;;;18.48;3.97;;;;;;;19.73;69.69;101423.22;5028875;28;20044;-71
2022/08/22 01:58:54;;;;;;;23.50;4.85;;;;;;;19.49;70.84;101420.94;5029628;28;20021;-73
2022/08/22 02:02:02;;;;;;;20.63;4.03;;;;;;;19.21;71.72;101424.59;5029318;28;20030;-72
2022/08/22 02:04:51;;;;;;;19.58;4.35;;;;;;;19.40;71.32;101430.41;5029034;28;20111;-70
2022/08/22 02:07:32;;;;;;;17.45;4.18;;;;;;;19.49;71.17;101418.19;5027105;28;20025;-72
2022/08/22 02:10:16;;;;;;;22.05;4.38;;;;;;;19.29;71.54;101430.97;5029203;28;20111;-71
2022/08/22 02:12:44;;;;;;;24.95;4.65;;;;;;;19.17;72.37;101423.31;5026830;28;20025;-72
2022/08/22 02:15:13;;;;;;;22.65;4.68;;;;;;;19.18;72.37;101422.28;5026786;28;20029;-71
2022/08/22 02:18:03;;;;;;;22.88;4.60;;;;;;;19.21;72.30;101419.13;5026032;28;20061;-72
2022/08/22 02:20:47;;;;;;;22.77;5.05;;;;;;;19.29;72.01;101425.50;5025601;28;20086;-69
2022/08/22 02:23:50;;;;;;;11.93;3.45;;;;;;;19.29;72.19;101425.50;5029157;28;20018;-71
2022/08/22 02:26:36;;;;;;;23.40;4.78;;;;;;;19.42;71.82;101425.56;5029442;28;20036;-72
2022/08/22 02:29:17;;;;;;;22.50;4.35;;;;;;;19.52;71.43;101426.06;5030291;28;20120;-71
2022/08/22 02:32:03;;;;;;;14.07;3.58;;;;;;;19.38;71.59;101418.81;5031354;28;20026;-70
2022/08/22 02:34:57;;;;;;;21.45;4.63;;;;;;;19.69;70.58;101416.47;5025889;28;20025;-72
2022/08/22 02:37:45;;;;;;;13.48;3.72;;;;;;;19.64;70.92;101420.88;5026474;28;20028;-73
2022/08/22 02:40:34;;;;;;;23.95;3.55;;;;;;;19.79;70.23;101416.06;5021758;28;20040;-73
2022/08/22 02:43:12;;;;;;;18.17;4.15;;;;;;;19.47;71.26;101425.81;5028254;28;20022;-73
2022/08/22 02:45:55;;;;;;;24.60;4.65;;;;;;;19.58;70.89;101425.28;5031924;28;20103;-72
2022/08/22 02:48:41;;;;;;;17.73;4.20;;;;;;;19.47;71.46;101428.56;5027767;28;20025;-71
2022/08/22 02:51:15;;;;;;;20.13;4.72;;;;;;;19.29;71.90;101430.97;5030238;28;20512;-72
2022/08/22 02:54:02;;;;;;;18.15;4.40;;;;;;;19.56;71.04;101421.84;5029098;28;20037;-72
2022/08/22 02:56:34;;;;;;;12.27;3.70;;;;;;;19.34;71.83;101423.00;5026856;28;20026;-73
2022/08/22 02:59:31;;;;;;;22.38;4.55;;;;;;;19.61;70.96;101419.34;5034474;28;20033;-72
2022/08/22 03:02:17;;;;;;;16.42;3.67;;;;;;;19.79;70.21;101411.41;5033282;28;20036;-71
2022/08/22 03:04:49;;;;;;;20.55;4.63;;;;;;;19.71;70.51;101424.47;5023805;28;20033;-73
2022/08/22 03:07:26;;;;;;;17.90;3.92;;;;;;;19.59;71.14;101415.97;5022919;28;20032;-73
2022/08/22 03:10:22;;;;;;;18.35;4.68;;;;;;;19.39;71.57;101418.59;5025732;28;20028;-72
2022/08/22 03:13:01;;;;;;;21.60;3.97;;;;;;;19.45;71.55;101419.69;5028450;28;20056;-72
2022/08/22 03:15:36;;;;;;;24.33;4.75;;;;;;;19.60;71.05;101423.16;5025476;28;20052;-72
2022/08/22 03:18:02;;;;;;;20.20;4.13;;;;;;;19.60;70.97;101417.66;5029305;28;20051;-73
2022/08/22 03:20:42;;;;;;;15.25;3.97;;;;;;;19.43;71.61;101410.78;5029327;28;20052;-71
2022/08/22 03:23:36;;;;;;;13.85;4.03;;;;;;;19.41;71.57;101412.88;5027801;28;20031;-72
2022/08/22 03:26:23;;;;;;;26.15;4.50;;;;;;;19.27;72.14;101422.09;5035311;28;20029;-72
2022/08/22 03:28:56;;;;;;;27.80;4.80;;;;;;;19.37;71.85;101411.63;5025732;28;20503;-72
2022/08/22 03:31:23;;;;;;;20.48;4.30;;;;;;;19.53;71.71;101416.75;5033703;28;20071;-72
2022/08/22 03:34:22;;;;;;;22.17;3.97;;;;;;;19.63;70.96;101411.78;5026286;28;20564;-72
2022/08/22 03:37:13;;;;;;;22.00;4.43;;;;;;;19.61;70.99;101413.00;5023584;28;20033;-72
2022/08/22 03:40:23;;;;;;;17.45;3.85;;;;;;;19.69;70.63;101410.97;4993477;28;20186;-73
2022/08/22 03:43:01;;;;;;;32.35;4.80;;;;;;;19.65;70.73;101415.16;5032297;28;20064;-72
2022/08/22 03:45:33;;;;;;;18.85;3.58;;;;;;;19.77;70.30;101412.69;5030830;28;20033;-71
2022/08/22 03:48:23;;;;;;;15.05;3.75;;;;;;;19.73;70.28;101416.88;5029414;28;20022;-71
2022/08/22 03:51:13;;;;;;;16.92;4.55;;;;;;;19.70;70.49;101418.16;5029487;28;20036;-71
2022/08/22 03:54:04;;;;;;;12.55;3.55;;;;;;;19.68;70.51;101428.47;5023744;28;20117;-69
2022/08/22 03:56:38;;;;;;;20.90;3.80;;;;;;;19.71;70.37;101428.06;5030544;28;20035;-71
2022/08/22 03:59:39;;;;;;;21.90;4.15;;;;;;;19.55;71.27;101430.28;5036542;28;20029;-71
2022/08/22 04:02:42;;;;;;;16.48;4.40;;;;;;;19.37;71.74;101430.84;5029695;28;20120;-71
2022/08/22 04:05:30;;;;;;;18.08;4.28;;;;;;;19.13;72.50;101433.00;5027420;28;20040;-71
2022/08/22 04:08:29;;;;;;;18.23;4.32;;;;;;;19.31;72.21;101431.66;5027206;28;20037;-71
2022/08/22 04:11:09;;;;;;;19.70;4.65;;;;;;;19.29;72.35;101430.97;5026452;28;20112;-73
2022/08/22 04:13:53;;;;;;;19.17;4.63;;;;;;;19.49;71.60;101437.44;5026281;28;20026;-73
2022/08/22 04:16:25;;;;;;;14.75;4.22;;;;;;;19.37;71.98;101450.06;5025931;28;20029;-71
2022/08/22 04:18:50;;;;;;;25.83;5.50;;;;;;;19.09;72.88;101442.69;5030675;28;20380;-71
2022/08/22 04:21:40;;;;;;;13.93;3.90;;;;;;;19.00;73.34;101438.41;5031518;28;20540;-72
2022/08/22 04:24:19;;;;;;;24.13;4.07;;;;;;;18.93;73.81;101440.25;5033987;28;20017;-72
2022/08/22 04:26:54;;;;;;;24.10;5.90;;;;;;;18.82;74.23;101443.53;5034667;28;20124;-71
2022/08/22 04:29:27;;;;;;;22.15;5.03;;;;;;;18.86;74.24;101448.44;5024023;28;20025;-72
2022/08/22 04:32:02;;;;;;;22.83;4.88;;;;;;;18.73;74.82;101437.34;5026494;28;20022;-71
2022/08/22 04:34:38;;;;;;;23.65;4.93;;;;;;;18.97;73.96;101444.28;5028345;28;20013;-72
2022/08/22 04:37:10;;;;;;;26.35;5.18;;;;;;;19.00;73.58;101454.88;5029810;28;20021;-72
2022/08/22 04:39:47;;;;;;;19.98;5.07;;;;;;;18.91;74.20;101450.59;5028973;28;20394;-72
2022/08/22 04:42:32;;;;;;;21.10;3.60;;;;;;;19.02;73.90;101447.28;5029553;28;20067;-71
2022/08/22 04:45:15;;;;;;;18.92;3.78;;;;;;;18.89;74.25;101452.66;5042246;28;20029;-72
2022/08/22 04:47:53;;;;;;;19.30;4.25;;;;;;;18.80;74.68;101459.34;5027399;28;20087;-71
2022/08/22 04:50:28;;;;;;;24.73;4.63;;;;;;;18.78;75.21;101455.94;5025312;28;20021;-71
2022/08/22 04:53:22;;;;;;;18.25;4.80;;;;;;;18.85;74.80;101456.88;5031581;28;20063;-72
2022/08/22 04:56:16;;;;;;;22.35;4.20;;;;;;;19.17;73.52;101450.78;5024885;28;20120;-71
2022/08/22 04:58:58;;;;;;;20.65;4.47;;;;;;;19.08;73.79;101451.97;5028194;28;20168;-72
2022/08/22 05:01:36;;;;;;;17.30;3.97;;;;;;;19.15;73.89;101458.34;5026012;28;20073;-71
2022/08/22 05:04:08;;;;;;;17.60;4.55;;;;;;;19.18;73.87;101452.47;5027229;28;20026;-72
2022/08/22 05:06:39;;;;;;;23.90;4.10;;;;;;;19.36;73.16;101464.81;5028870;28;20093;-72
2022/08/22 05:09:16;;;;;;;17.20;4.20;;;;;;;19.37;73.12;101466.53;5031948;28;20166;-72
2022/08/22 05:11:43;;;;;;;19.90;4.10;;;;;;;19.37;73.22;101461.06;5029543;28;20116;-71
2022/08/22 05:14:32;;;;;;;24.77;5.10;;;;;;;19.37;73.39;101466.53;5030728;28;20081;-73
2022/08/22 05:16:59;;;;;;;37.42;4.93;;;;;;;19.36;73.27;101470.31;5029174;28;20025;-71
2022/08/22 05:19:33;;;;;;;20.63;4.45;;;;;;;19.36;73.47;101473.91;5028079;28;20025;-73
2022/08/22 05:22:00;;;;;;;22.77;4.22;;;;;;;19.51;72.93;101473.81;5034504;28;20033;-72
2022/08/22 05:24:33;;;;;;;24.23;4.43;;;;;;;19.61;72.64;101474.28;5032401;28;20022;-72
2022/08/22 05:27:10;;;;;;;14.85;4.40;;;;;;;19.41;73.24;101478.78;5030167;28;20074;-72
2022/08/22 05:29:39;;;;;;;21.80;5.00;;;;;;;19.69;72.37;101465.91;5030905;28;20025;-72
2022/08/22 05:32:11;;;;;;;15.27;3.88;;;;;;;19.68;72.21;101464.19;5030755;28;20084;-72
2022/08/22 05:34:41;;;;;;;23.10;4.57;;;;;;;19.69;72.22;101460.41;5031816;28;20026;-71
2022/08/22 05:37:24;;;;;;;16.05;3.63;;;;;;;19.82;72.03;101469.75;5032770;28;20022;-70
2022/08/22 05:39:56;;;;;;;21.13;4.32;;;;;;;19.73;72.04;101472.66;5032425;28;20022;-71
2022/08/22 05:42:30;;;;;;;24.85;4.97;;;;;;;19.76;72.36;101472.28;5033482;28;20017;-71
2022/08/22 05:44:56;;;;;;;20.85;4.82;;;;;;;19.70;72.31;101481.34;5032623;28;20097;-72
2022/08/22 05:47:31;;;;;;;22.00;3.97;;;;;;;19.58;72.97;101474.72;5031302;28;20108;-71
2022/08/22 05:50:07;;;;;;;24.40;4.55;;;;;;;19.79;72.21;101477.34;5032022;28;20033;-72
2022/08/22 05:52:57;;;;;;;14.88;4.70;;;;;;;19.81;72.31;101479.88;5028194;28;20025;-71
2022/08/22 05:55:31;;;;;;;24.20;4.32;;;;;;;19.67;72.91;101484.47;5025130;28;20084;-72
2022/08/22 05:58:03;;;;;;;25.20;4.55;;;;;;;19.65;73.25;101491.25;5028215;28;20025;-70
2022/08/22 06:00:35;;;;;;;16.15;4.38;;;;;;;19.76;73.01;101485.19;5030093;28;20115;-71
2022/08/22 06:03:04;;;;;;;14.27;3.75;;;;;;;19.76;73.29;101491.53;5030168;28;20018;-72
2022/08/22 06:05:35;;;;;;;18.55;4.07;;;;;;;19.69;73.68;101482.41;5030294;28;20491;-70
2022/08/22 06:08:13;;;;;;;19.08;3.70;;;;;;;19.88;74.14;101491.75;5028551;28;20095;-70
2022/08/22 06:10:46;;;;;;;19.20;4.60;;;;;;;19.84;74.43;101492.41;5029844;28;20033;-70
2022/08/22 06:13:33;;;;;;;19.17;4.38;;;;;;;19.89;73.39;101492.63;5030317;28;20055;-71
2022/08/22 06:16:20;;;;;;;24.63;5.13;;;;;;;20.04;72.61;101496.91;5031639;28;20034;-71
2022/08/22 06:18:49;;;;;;;19.27;4.25;;;;;;;20.04;72.55;101496.91;5030405;28;20040;-71
2022/08/22 06:21:30;;;;;;;17.20;4.28;;;;;;;19.94;72.90;101501.09;5031997;28;20024;-71
2022/08/22 06:23:58;;;;;;;21.60;4.97;;;;;;;19.99;72.90;101498.59;5025089;28;20152;-71
2022/08/22 06:26:34;;;;;;;16.98;4.30;;;;;;;19.91;73.44;101504.25;5028080;28;20036;-72
2022/08/22 06:29:01;;;;;;;20.92;5.00;;;;;;;19.99;73.25;101504.94;5026452;28;20033;-72
2022/08/22 06:31:34;;;;;;;18.40;4.05;;;;;;;19.98;73.29;101503.22;5028285;28;20053;-71
2022/08/22 06:34:02;;;;;;;26.02;5.00;;;;;;;19.88;73.83;101504.66;5024337;28;20498;-71
2022/08/22 06:36:31;;;;;;;15.70;3.85;;;;;;;20.23;74.13;101509.03;5028584;28;20040;-72
2022/08/22 06:39:09;;;;;;;22.52;4.13;;;;;;;20.22;73.90;101510.09;5027888;28;20021;-72
2022/08/22 06:41:49;;;;;;;17.45;4.50;;;;;;;19.92;74.93;101514.19;5028763;28;20108;-72
2022/08/22 06:44:29;;;;;;;26.00;4.25;;;;;;;19.87;74.88;101516.72;5029162;28;20497;-71
2022/08/22 06:46:59;;;;;;;21.95;4.68;;;;;;;19.80;74.73;101513.94;5029107;28;20391;-71
2022/08/22 06:49:27;;;;;;;21.98;4.53;;;;;;;19.96;73.82;101515.50;5029700;28;20021;-72
2022/08/22 06:52:00;;;;;;;14.02;3.95;;;;;;;19.79;74.79;101521.31;5026911;28;20064;-70
2022/08/22 06:54:31;;;;;;;21.08;4.97;;;;;;;20.06;73.61;101519.53;5027555;28;20025;-70
2022/08/22 06:56:57;;;;;;;18.80;4.20;;;;;;;20.10;72.94;101522.75;5030022;28;20036;-72
2022/08/22 06:59:27;;;;;;;17.42;4.25;;;;;;;20.06;72.85;101521.44;5027021;28;20045;-72
2022/08/22 07:02:02;;;;;;;27.67;5.25;;;;;;;20.04;72.63;101518.06;5019823;28;20064;-72
2022/08/22 07:04:27;;;;;;;11.40;3.70;;;;;;;19.95;73.14;101530.28;5017845;28;20537;-72
2022/08/22 07:06:57;;;;;;;17.20;3.92;;;;;;;20.23;72.42;101536.53;5026344;28;20037;-71
2022/08/22 07:09:40;;;;;;;17.98;4.05;;;;;;;20.17;72.38;101529.13;5027525;28;20025;-71
2022/08/22 07:12:18;;;;;;;13.80;3.63;;;;;;;20.10;72.70;101533.75;5027958;28;20025;-72
2022/08/22 07:14:48;;;;;;;21.05;4.80;;;;;;;20.24;72.71;101546.50;5026820;28;20033;-71
2022/08/22 07:17:25;;;;;;;19.33;4.05;;;;;;;20.32;71.85;101543.56;5028763;28;20095;-72
2022/08/22 07:19:58;;;;;;;11.75;4.00;;;;;;;20.38;71.48;101546.53;5028195;28;20052;-72
2022/08/22 07:22:29;;;;;;;16.02;4.00;;;;;;;20.50;71.44;101544.91;5027771;28;20021;-72
2022/08/22 07:25:03;;;;;;;14.93;4.47;;;;;;;20.56;71.31;101544.94;5025794;28;20041;-72
2022/08/22 07:27:52;;;;;;;17.45;4.30;;;;;;;20.76;70.70;101550.47;5027546;28;20029;-72
2022/08/22 07:30:20;;;;;;;18.90;4.10;;;;;;;20.83;70.22;101540.31;5026832;28;20025;-72
2022/08/22 07:32:55;;;;;;;14.55;4.45;;;;;;;21.07;69.29;101546.28;5026401;28;20025;-72
2022/08/22 07:35:27;;;;;;;15.60;3.85;;;;;;;21.25;68.88;101543.72;5023979;28;20033;-71
2022/08/22 07:38:04;;;;;;;17.42;4.22;;;;;;;21.30;68.92;101546.72;5028106;28;20033;-71
2022/08/22 07:40:59;;;;;;;16.70;4.25;;;;;;;21.65;67.83;101543.75;5026849;28;20025;-72
2022/08/22 07:43:44;;;;;;;13.25;3.38;;;;;;;21.29;68.46;101553.31;5024421;28;20029;-72
2022/08/22 07:46:32;;;;;;;16.15;3.33;;;;;;;21.63;67.88;101551.34;5027386;28;20029;-72
2022/08/22 07:49:22;;;;;;;17.42;3.83;;;;;;;21.70;67.31;101557.69;5030547;28;20112;-74
2022/08/22 07:52:03;;;;;;;23.55;3.88;;;;;;;21.65;67.29;101563.03;5022272;28;20026;-71
2022/08/22 07:54:56;;;;;;;19.15;4.70;;;;;;;21.76;67.18;101551.31;5027268;28;20025;-73
2022/08/22 07:57:30;;;;;;;16.42;4.15;;;;;;;22.28;65.76;101554.16;5025734;28;20048;-73
2022/08/22 08:00:15;;;;;;;22.63;3.90;;;;;;;22.04;66.41;101558.44;5025030;28;20032;-72
2022/08/22 08:03:07;;;;;;;17.27;4.20;;;;;;;22.19;65.64;101550.81;5025735;28;20071;-73
2022/08/22 08:05:37;;;;;;;27.85;5.18;;;;;;;22.24;65.87;101545.47;5019444;28;20064;-72
2022/08/22 08:08:11;;;;;;;16.73;3.47;;;;;;;22.54;64.80;101545.75;5026242;28;20053;-71
2022/08/22 08:10:39;;;;;;;16.80;3.40;;;;;;;22.77;63.99;101553.47;5028028;28;20041;-73
2022/08/22 08:13:15;;;;;;;13.80;3.45;;;;;;;22.94;63.19;101548.28;5027931;28;20075;-72
2022/08/22 08:15:44;;;;;;;15.32;4.15;;;;;;;23.23;62.26;101546.78;5022380;28;20034;-73
2022/08/22 08:18:12;;;;;;;26.15;4.07;;;;;;;23.17;62.90;101542.16;5025930;28;20043;-73
2022/08/22 08:20:38;;;;;;;21.02;3.58;;;;;;;23.25;62.49;101552.91;5024916;28;20029;-72
2022/08/22 08:23:08;;;;;;;20.83;3.55;;;;;;;23.21;62.08;101543.38;5028725;28;20029;-73
2022/08/22 08:26:02;;;;;;;19.95;4.55;;;;;;;23.55;61.37;101540.09;5030168;28;20115;-72
2022/08/22 08:28:33;;;;;;;17.45;3.80;;;;;;;23.67;60.88;101542.13;5022598;28;20022;-74
2022/08/22 08:31:06;;;;;;;23.08;4.68;;;;;;;23.71;60.67;101538.69;5026090;28;20025;-74
2022/08/22 08:33:34;;;;;;;17.38;4.22;;;;;;;23.67;61.21;101531.94;5025079;28;20031;-74
2022/08/22 08:36:15;;;;;;;20.83;4.05;;;;;;;23.88;60.40;101538.94;5025527;28;20029;-71
2022/08/22 08:39:02;;;;;;;17.15;3.70;;;;;;;23.87;59.99;101537.25;5027254;28;20033;-72
2022/08/22 08:42:00;;;;;;;18.83;4.05;;;;;;;24.08;59.29;101528.47;5026049;28;20083;-71
2022/08/22 08:44:44;;;;;;;10.60;3.47;;;;;;;23.92;59.11;101526.31;5021448;28;20029;-72
2022/08/22 08:47:44;;;;;;;16.23;3.10;;;;;;;24.16;57.90;101529.22;5028321;28;20044;-71
2022/08/22 08:50:34;;;;;;;17.67;3.83;;;;;;;24.68;57.83;101515.75;5026940;28;20479;-72
2022/08/22 08:53:20;;;;;;;20.92;3.90;;;;;;;24.51;58.18;101523.88;5029450;28;20025;-72
2022/08/22 08:56:33;;;;;;;12.65;3.40;;;;;;;24.77;56.55;101522.63;5028118;28;20107;-73
2022/08/22 08:59:09;;;;;;;15.27;3.83;;;;;;;25.01;56.31;101524.38;4952473;28;20170;-73
2022/08/22 09:02:05;;;;;;;26.00;3.47;;;;;;;25.21;55.42;101531.53;5031229;28;20029;-73
2022/08/22 09:05:03;;;;;;;10.57;2.97;;;;;;;25.09;54.59;101524.06;5032061;28;20033;-75
2022/08/22 09:08:04;;;;;;;13.55;3.58;;;;;;;25.04;55.18;101521.19;5026673;28;20449;-73
2022/08/22 09:10:38;;;;;;;17.17;3.22;;;;;;;25.21;55.12;101515.75;5029641;28;20079;-74
2022/08/22 09:13:41;;;;;;;13.38;3.00;;;;;;;25.14;54.85;101515.88;5031986;28;20119;-74
2022/08/22 09:16:25;;;;;;;18.48;3.58;;;;;;;25.14;55.06;101509.50;5030298;28;20040;-73
2022/08/22 09:19:18;;;;;;;24.40;3.58;;;;;;;25.19;53.16;101506.84;5030714;28;20025;-73
2022/08/22 09:22:12;;;;;;;15.38;3.58;;;;;;;25.41;52.79;101516.25;5025866;28;20022;-75
2022/08/22 09:24:56;;;;;;;13.38;3.30;;;;;;;25.53;52.80;101513.47;5027102;28;20046;-74
2022/08/22 09:27:43;;;;;;;11.82;2.65;;;;;;;25.14;53.15;101515.88;5030591;28;20029;-76
2022/08/22 09:30:18;;;;;;;14.35;3.88;;;;;;;25.41;53.23;101512.63;5027749;28;20059;-73
2022/08/22 09:32:59;;;;;;;15.93;3.60;;;;;;;25.47;52.61;101503.34;5023307;28;20097;-73
2022/08/22 09:35:55;;;;;;;18.25;3.72;;;;;;;25.42;52.79;101500.44;5026194;28;20029;-75
2022/08/22 09:38:30;;;;;;;18.88;3.50;;;;;;;25.26;52.93;101495.66;5029864;28;20041;-73
2022/08/22 09:41:11;;;;;;;14.43;3.75;;;;;;;25.30;53.44;101491.28;5028566;28;20091;-74
2022/08/22 09:43:46;;;;;;;16.42;3.72;;;;;;;25.82;52.30;101494.16;5023488;28;20017;-73
2022/08/22 09:46:27;;;;;;;13.05;3.53;;;;;;;25.89;52.94;101500.44;5031874;28;20057;-73
2022/08/22 09:49:31;;;;;;;10.05;2.85;;;;;;;26.11;50.94;101497.84;5031191;28;20037;-73
2022/08/22 09:52:30;;;;;;;10.05;3.22;;;;;;;26.13;50.59;101490.94;5024137;28;20053;-73
2022/08/22 09:55:04;;;;;;;17.35;3.38;;;;;;;25.88;51.35;101493.19;5019410;28;20133;-74
2022/08/22 09:57:39;;;;;;;13.25;3.13;;;;;;;25.78;50.97;101492.97;5035440;28;20017;-72
2022/08/22 10:00:05;;;;;;;12.60;2.63;;;;;;;25.86;51.09;101489.81;5027529;28;20037;-75
2022/08/22 10:02:41;;;;;;;22.48;4.13;;;;;;;25.83;50.73;101487.56;5028935;28;20029;-74
2022/08/22 10:05:16;;;;;;;11.70;2.90;;;;;;;25.76;50.98;101481.28;5028066;28;20040;-73
2022/08/22 10:08:06;;;;;;;12.98;2.90;;;;;;;26.11;50.57;101484.81;5028128;28;20033;-73
2022/08/22 10:10:46;;;;;;;8.55;2.60;;;;;;;26.70;47.57;101482.63;5026791;28;20044;-74
2022/08/22 10:13:30;;;;;;;10.90;2.75;;;;;;;26.85;47.58;101481.19;5032798;28;20021;-73
2022/08/22 10:16:17;;;;;;;15.57;3.08;;;;;;;27.17;46.39;101478.69;5027792;28;20017;-73
2022/08/22 10:19:15;;;;;;;15.95;3.30;;;;;;;27.03;46.11;101475.38;5025877;28;20033;-75
2022/08/22 10:21:49;;;;;;;10.88;2.72;;;;;;;26.49;47.12;101477.78;5029273;28;20049;-74
2022/08/22 10:24:29;;;;;;;12.50;2.88;;;;;;;26.62;47.22;101471.91;5028053;28;20120;-73
2022/08/22 10:27:03;;;;;;;15.05;2.53;;;;;;;26.38;47.99;101473.09;5028350;28;20030;-74
2022/08/22 10:30:02;;;;;;;9.98;2.70;;;;;;;26.43;47.65;101473.22;5030701;28;20033;-74
2022/08/22 10:33:01;;;;;;;10.32;3.25;;;;;;;26.20;48.60;101474.97;5022973;28;20025;-74
2022/08/22 10:35:31;;;;;;;9.02;2.85;;;;;;;26.67;46.95;101474.78;5014868;28;20033;-74
2022/08/22 10:38:10;;;;;;;13.88;3.28;;;;;;;26.62;46.63;101469.16;5028498;28;20029;-74
2022/08/22 10:40:59;;;;;;;18.35;3.70;;;;;;;26.22;47.86;101472.81;5027645;28;20061;-73
2022/08/22 10:43:50;;;;;;;9.63;3.03;;;;;;;26.45;47.60;101466.31;5027541;28;20025;-74
2022/08/22 10:46:23;;;;;;;14.55;3.22;;;;;;;27.00;46.99;101475.91;5026473;28;20100;-74
2022/08/22 10:49:01;;;;;;;20.10;3.58;;;;;;;27.14;46.81;101480.06;5028669;28;20057;-73
2022/08/22 10:51:55;;;;;;;16.10;2.72;;;;;;;27.45;45.58;101469.38;5028941;28;20030;-74
2022/08/22 10:54:30;;;;;;;13.23;2.83;;;;;;;27.93;43.71;101465.06;5036922;28;20025;-74
2022/08/22 10:57:10;;;;;;;18.83;3.00;;;;;;;28.23;43.86;101459.81;5027590;28;20101;-73
2022/08/22 10:59:51;;;;;;;10.98;2.63;;;;;;;28.54;42.23;101465.75;5041330;28;20037;-74
2022/08/22 11:02:38;;;;;;;8.00;3.38;;;;;;;28.27;41.11;101466.56;5026585;28;20033;-74
2022/08/22 11:05:28;;;;;;;11.10;2.35;;;;;;;27.48;42.94;101468.88;5025013;28;20033;-74
2022/08/22 11:08:17;;;;;;;15.88;2.88;;;;;;;27.08;44.77;101469.94;5023921;28;20568;-73
2022/08/22 11:11:31;;;;;;;17.23;3.08;;;;;;;27.43;44.23;101466.00;5026978;28;20067;-75
2022/08/22 11:14:05;;;;;;;14.38;3.40;;;;;;;27.52;43.48;101465.34;5023848;28;20037;-72
2022/08/22 11:16:40;;;;;;;15.73;3.53;;;;;;;27.57;43.71;101456.19;5026379;28;20116;-74
2022/08/22 11:19:25;;;;;;;10.60;3.50;;;;;;;27.38;44.05;101460.38;5027715;28;20026;-75
2022/08/22 11:22:15;;;;;;;12.38;2.70;;;;;;;27.14;44.61;101457.81;5014780;28;20029;-73
2022/08/22 11:24:40;;;;;;;13.05;2.58;;;;;;;27.56;44.20;101465.63;5030005;28;20443;-75
2022/08/22 11:27:19;;;;;;;15.77;2.50;;;;;;;28.09;42.86;101455.75;5025932;28;20124;-74
2022/08/22 11:30:19;;;;;;;8.68;2.85;;;;;;;27.85;42.24;101458.00;5026961;28;20025;-72
2022/08/22 11:33:10;;;;;;;14.52;2.63;;;;;;;27.55;42.43;101455.63;5021214;28;20041;-74
2022/08/22 11:35:41;;;;;;;;;;;;;;;28.03;42.24;101459.59;5026028;28;20025;-73
2022/08/22 11:38:36;;;;;;;16.60;3.20;;;;;;;28.72;40.89;101462.56;5025194;28;19913;-74
2022/08/22 11:41:11;;;;;;;8.55;2.70;;;;;;;29.67;38.32;101451.59;5026146;28;20295;-73
2022/08/22 11:44:05;;;;;;;14.00;3.10;;;;;;;29.61;38.73;101452.66;5024428;28;20029;-73
2022/08/22 11:46:39;;;;;;;12.40;2.67;;;;;;;28.57;40.53;101443.78;5023706;28;20483;-73
2022/08/22 11:49:14;;;;;;;9.18;2.88;;;;;;;28.27;41.09;101454.56;5025833;28;20457;-75
2022/08/22 11:52:06;;;;;;;7.75;2.80;;;;;;;27.91;41.84;101456.09;5027221;28;20025;-73
2022/08/22 11:54:58;;;;;;;14.88;2.75;;;;;;;27.39;43.89;101453.75;5024272;28;20079;-74
2022/08/22 11:57:41;;;;;;;30.05;3.55;;;;;;;27.39;43.81;101454.56;5019292;28;20037;-75
2022/08/22 12:00:29;;;;;;;16.60;2.97;;;;;;;27.60;43.10;101447.34;5030515;28;20060;-74
2022/08/22 12:03:19;;;;;;;10.98;2.58;;;;;;;27.95;42.66;101440.56;5027004;28;20039;-73
2022/08/22 12:05:56;;;;;;;12.68;3.30;;;;;;;27.89;42.27;101459.16;5024859;28;20029;-73
2022/08/22 12:08:50;;;;;;;8.02;2.40;;;;;;;27.48;43.19;101441.06;5023765;28;20025;-73
2022/08/22 12:11:52;;;;;;;12.15;2.88;;;;;;;27.53;43.51;101438.34;5026366;28;20083;-73
2022/08/22 12:14:33;;;;;;;12.10;3.00;;;;;;;27.49;44.06;101442.72;5022430;28;20112;-73
2022/08/22 12:17:30;;;;;;;10.35;2.22;;;;;;;27.82;43.24;101436.25;5024830;28;20029;-74
2022/08/22 12:20:37;;;;;;;6.68;2.38;;;;;;;28.53;41.93;101430.63;5024083;28;20033;-74
2022/08/22 12:23:15;;;;;;;9.38;2.60;;;;;;;29.54;39.62;101424.13;4982838;28;20030;-74
2022/08/22 12:25:49;;;;;;;7.18;2.30;;;;;;;29.95;38.89;101437.16;5023359;28;20057;-75